Leonore, Illinois
Current Conditions -  °F | °C
As of 4:15 AM on Thursday 29 Jan 2015 (Local Time) from KVYS Reporting Station
Clear Clear  
Wind Chill: 34°   Ceiling: Unl
Heat Index: 34°   Visibility: 10mi
Dew Point: 31°   Wind: 3mph
Humidity: 88%   Direction: 140°SE
Pressure: 29.68"   Gusts: NA
Location:  41.19°N, 88.98°W
Report Text: KVYS 291015Z AUTO 14003KT 10SM CLR 01/00 A2968 RMK AO2 T00131005
Loading
Personal Weather Stations






























Interactive Weather Map New forecast layout! Learn more

10-Day Weather Forecast

Advertisements
Track Severe Weather on mobile